sensor_id;sensor_type;location;lat;lon;timestamp;P1;durP1;ratioP1;P2;durP2;ratioP2
71566;SDS011;59403;47.456;19.120;2023-04-25T00:02:08;2.22;;;1.80;;
71566;SDS011;59403;47.456;19.120;2023-04-25T00:04:35;2.25;;;1.80;;
71566;SDS011;59403;47.456;19.120;2023-04-25T00:07:03;2.97;;;1.80;;
71566;SDS011;59403;47.456;19.120;2023-04-25T00:09:31;2.30;;;1.60;;
71566;SDS011;59403;47.456;19.120;2023-04-25T00:11:58;2.33;;;1.55;;
71566;SDS011;59403;47.456;19.120;2023-04-25T00:14:26;1.98;;;1.45;;
71566;SDS011;59403;47.456;19.120;2023-04-25T00:16:54;3.03;;;1.45;;
71566;SDS011;59403;47.456;19.120;2023-04-25T00:19:21;2.70;;;1.62;;
71566;SDS011;59403;47.456;19.120;2023-04-25T00:21:48;1.90;;;1.37;;
71566;SDS011;59403;47.456;19.120;2023-04-25T00:24:15;2.78;;;1.42;;
71566;SDS011;59403;47.456;19.120;2023-04-25T00:26:43;3.80;;;1.50;;
71566;SDS011;59403;47.456;19.120;2023-04-25T00:29:10;2.53;;;1.40;;
71566;SDS011;59403;47.456;19.120;2023-04-25T00:31:37;2.30;;;1.65;;
71566;SDS011;59403;47.456;19.120;2023-04-25T00:34:05;2.23;;;1.57;;
71566;SDS011;59403;47.456;19.120;2023-04-25T00:36:33;3.92;;;1.90;;
71566;SDS011;59403;47.456;19.120;2023-04-25T00:39:00;2.58;;;2.05;;
71566;SDS011;59403;47.456;19.120;2023-04-25T00:41:29;2.60;;;2.03;;
71566;SDS011;59403;47.456;19.120;2023-04-25T00:43:58;3.78;;;2.30;;
71566;SDS011;59403;47.456;19.120;2023-04-25T00:46:25;3.63;;;1.93;;
71566;SDS011;59403;47.456;19.120;2023-04-25T00:48:52;2.90;;;1.85;;
71566;SDS011;59403;47.456;19.120;2023-04-25T00:51:20;3.58;;;2.15;;
71566;SDS011;59403;47.456;19.120;2023-04-25T00:53:47;3.50;;;2.37;;
71566;SDS011;59403;47.456;19.120;2023-04-25T00:56:15;2.80;;;2.37;;
71566;SDS011;59403;47.456;19.120;2023-04-25T00:58:43;4.47;;;2.20;;
71566;SDS011;59403;47.456;19.120;2023-04-25T01:04:45;2.87;;;1.98;;
71566;SDS011;59403;47.456;19.120;2023-04-25T01:07:13;3.97;;;2.03;;
71566;SDS011;59403;47.456;19.120;2023-04-25T01:09:42;3.22;;;2.10;;
71566;SDS011;59403;47.456;19.120;2023-04-25T01:12:08;2.93;;;2.10;;
71566;SDS011;59403;47.456;19.120;2023-04-25T01:14:37;3.50;;;2.12;;
71566;SDS011;59403;47.456;19.120;2023-04-25T01:17:04;2.80;;;1.98;;
71566;SDS011;59403;47.456;19.120;2023-04-25T01:19:32;3.22;;;2.30;;
71566;SDS011;59403;47.456;19.120;2023-04-25T01:22:01;3.05;;;2.30;;
71566;SDS011;59403;47.456;19.120;2023-04-25T01:24:28;3.90;;;2.50;;
71566;SDS011;59403;47.456;19.120;2023-04-25T01:26:58;4.47;;;2.42;;
71566;SDS011;59403;47.456;19.120;2023-04-25T01:29:27;3.05;;;2.22;;
71566;SDS011;59403;47.456;19.120;2023-04-25T01:31:54;4.87;;;2.92;;
71566;SDS011;59403;47.456;19.120;2023-04-25T01:34:23;4.70;;;2.45;;
71566;SDS011;59403;47.456;19.120;2023-04-25T01:36:51;2.90;;;2.00;;
71566;SDS011;59403;47.456;19.120;2023-04-25T01:39:20;3.62;;;2.33;;
71566;SDS011;59403;47.456;19.120;2023-04-25T01:41:47;3.08;;;2.45;;
71566;SDS011;59403;47.456;19.120;2023-04-25T01:44:16;3.97;;;2.60;;
71566;SDS011;59403;47.456;19.120;2023-04-25T01:46:43;4.20;;;2.90;;
71566;SDS011;59403;47.456;19.120;2023-04-25T01:49:10;3.90;;;2.40;;
71566;SDS011;59403;47.456;19.120;2023-04-25T01:51:38;4.70;;;2.97;;
71566;SDS011;59403;47.456;19.120;2023-04-25T01:54:05;6.22;;;3.60;;
71566;SDS011;59403;47.456;19.120;2023-04-25T01:56:36;4.65;;;3.10;;
71566;SDS011;59403;47.456;19.120;2023-04-25T01:59:03;3.45;;;3.12;;
71566;SDS011;59403;47.456;19.120;2023-04-25T02:01:31;5.53;;;3.23;;
71566;SDS011;59403;47.456;19.120;2023-04-25T02:03:58;5.18;;;3.30;;
71566;SDS011;59403;47.456;19.120;2023-04-25T02:06:26;4.20;;;3.10;;
71566;SDS011;59403;47.456;19.120;2023-04-25T02:08:53;4.78;;;3.40;;
71566;SDS011;59403;47.456;19.120;2023-04-25T02:11:20;4.37;;;3.25;;
71566;SDS011;59403;47.456;19.120;2023-04-25T02:13:49;4.27;;;3.20;;
71566;SDS011;59403;47.456;19.120;2023-04-25T02:16:16;4.93;;;3.22;;
71566;SDS011;59403;47.456;19.120;2023-04-25T02:18:43;4.43;;;2.97;;
71566;SDS011;59403;47.456;19.120;2023-04-25T02:21:10;3.87;;;2.72;;
71566;SDS011;59403;47.456;19.120;2023-04-25T02:23:37;5.85;;;3.33;;
71566;SDS011;59403;47.456;19.120;2023-04-25T02:26:04;4.30;;;3.13;;
71566;SDS011;59403;47.456;19.120;2023-04-25T02:28:31;5.60;;;3.65;;
71566;SDS011;59403;47.456;19.120;2023-04-25T02:31:00;3.87;;;3.33;;
71566;SDS011;59403;47.456;19.120;2023-04-25T02:33:27;3.25;;;2.80;;
71566;SDS011;59403;47.456;19.120;2023-04-25T02:35:54;3.65;;;3.15;;
71566;SDS011;59403;47.456;19.120;2023-04-25T02:38:21;5.07;;;3.17;;
71566;SDS011;59403;47.456;19.120;2023-04-25T02:40:47;3.17;;;2.60;;
71566;SDS011;59403;47.456;19.120;2023-04-25T02:43:14;3.70;;;3.30;;
71566;SDS011;59403;47.456;19.120;2023-04-25T02:45:42;5.10;;;2.75;;
71566;SDS011;59403;47.456;19.120;2023-04-25T02:48:10;4.32;;;3.05;;
71566;SDS011;59403;47.456;19.120;2023-04-25T02:50:37;2.73;;;2.23;;
71566;SDS011;59403;47.456;19.120;2023-04-25T02:53:04;3.30;;;2.62;;
71566;SDS011;59403;47.456;19.120;2023-04-25T02:55:30;4.82;;;2.85;;
71566;SDS011;59403;47.456;19.120;2023-04-25T02:57:57;3.00;;;2.40;;
71566;SDS011;59403;47.456;19.120;2023-04-25T03:00:25;3.83;;;2.33;;
71566;SDS011;59403;47.456;19.120;2023-04-25T03:02:52;4.17;;;2.43;;
71566;SDS011;59403;47.456;19.120;2023-04-25T03:05:20;3.30;;;2.50;;
71566;SDS011;59403;47.456;19.120;2023-04-25T03:07:47;3.42;;;2.83;;
71566;SDS011;59403;47.456;19.120;2023-04-25T03:10:14;2.50;;;2.00;;
71566;SDS011;59403;47.456;19.120;2023-04-25T03:12:41;4.10;;;2.78;;
71566;SDS011;59403;47.456;19.120;2023-04-25T03:15:08;3.63;;;2.07;;
71566;SDS011;59403;47.456;19.120;2023-04-25T03:17:35;3.35;;;2.55;;
71566;SDS011;59403;47.456;19.120;2023-04-25T03:20:02;4.57;;;2.87;;
71566;SDS011;59403;47.456;19.120;2023-04-25T03:22:31;4.28;;;2.85;;
71566;SDS011;59403;47.456;19.120;2023-04-25T03:24:58;3.20;;;2.83;;
71566;SDS011;59403;47.456;19.120;2023-04-25T03:27:25;4.43;;;2.80;;
71566;SDS011;59403;47.456;19.120;2023-04-25T03:29:52;3.70;;;2.83;;
71566;SDS011;59403;47.456;19.120;2023-04-25T03:32:19;4.95;;;3.45;;
71566;SDS011;59403;47.456;19.120;2023-04-25T03:34:46;4.18;;;3.30;;
71566;SDS011;59403;47.456;19.120;2023-04-25T03:37:13;4.65;;;2.85;;
71566;SDS011;59403;47.456;19.120;2023-04-25T03:39:41;3.10;;;2.43;;
71566;SDS011;59403;47.456;19.120;2023-04-25T03:42:08;3.78;;;2.58;;
71566;SDS011;59403;47.456;19.120;2023-04-25T03:44:35;3.33;;;2.85;;
71566;SDS011;59403;47.456;19.120;2023-04-25T03:47:02;3.60;;;2.80;;
71566;SDS011;59403;47.456;19.120;2023-04-25T03:49:29;4.25;;;2.83;;
71566;SDS011;59403;47.456;19.120;2023-04-25T03:51:55;3.63;;;2.77;;
71566;SDS011;59403;47.456;19.120;2023-04-25T03:54:22;3.40;;;2.37;;
71566;SDS011;59403;47.456;19.120;2023-04-25T03:56:51;3.90;;;2.60;;
71566;SDS011;59403;47.456;19.120;2023-04-25T03:59:18;4.60;;;2.92;;
71566;SDS011;59403;47.456;19.120;2023-04-25T04:01:44;3.35;;;2.40;;
71566;SDS011;59403;47.456;19.120;2023-04-25T04:04:11;3.23;;;2.47;;
71566;SDS011;59403;47.456;19.120;2023-04-25T04:06:38;3.78;;;2.40;;
71566;SDS011;59403;47.456;19.120;2023-04-25T04:09:05;4.90;;;2.62;;
71566;SDS011;59403;47.456;19.120;2023-04-25T04:11:36;3.10;;;2.20;;
71566;SDS011;59403;47.456;19.120;2023-04-25T04:14:04;3.90;;;2.72;;
71566;SDS011;59403;47.456;19.120;2023-04-25T04:16:32;3.30;;;2.20;;
71566;SDS011;59403;47.456;19.120;2023-04-25T04:18:59;5.00;;;2.37;;
71566;SDS011;59403;47.456;19.120;2023-04-25T04:21:26;3.35;;;2.65;;
71566;SDS011;59403;47.456;19.120;2023-04-25T04:23:53;3.42;;;2.40;;
71566;SDS011;59403;47.456;19.120;2023-04-25T04:26:20;3.28;;;2.67;;
71566;SDS011;59403;47.456;19.120;2023-04-25T04:28:48;5.00;;;2.80;;
71566;SDS011;59403;47.456;19.120;2023-04-25T04:31:17;4.70;;;2.65;;
71566;SDS011;59403;47.456;19.120;2023-04-25T04:33:44;3.87;;;2.97;;
71566;SDS011;59403;47.456;19.120;2023-04-25T04:36:11;7.00;;;3.03;;
71566;SDS011;59403;47.456;19.120;2023-04-25T04:38:38;4.62;;;3.35;;
71566;SDS011;59403;47.456;19.120;2023-04-25T04:41:06;4.87;;;3.27;;
71566;SDS011;59403;47.456;19.120;2023-04-25T04:43:33;5.05;;;3.12;;
71566;SDS011;59403;47.456;19.120;2023-04-25T04:46:00;3.50;;;2.53;;
71566;SDS011;59403;47.456;19.120;2023-04-25T04:48:30;5.57;;;3.17;;
71566;SDS011;59403;47.456;19.120;2023-04-25T04:50:59;3.20;;;2.70;;
71566;SDS011;59403;47.456;19.120;2023-04-25T04:53:26;5.37;;;2.97;;
71566;SDS011;59403;47.456;19.120;2023-04-25T04:55:53;4.25;;;2.97;;
71566;SDS011;59403;47.456;19.120;2023-04-25T04:58:21;3.20;;;2.90;;
71566;SDS011;59403;47.456;19.120;2023-04-25T05:00:48;3.40;;;2.87;;
71566;SDS011;59403;47.456;19.120;2023-04-25T05:03:15;3.55;;;3.03;;
71566;SDS011;59403;47.456;19.120;2023-04-25T05:05:43;3.50;;;2.60;;
71566;SDS011;59403;47.456;19.120;2023-04-25T05:08:11;3.70;;;2.85;;
71566;SDS011;59403;47.456;19.120;2023-04-25T05:10:38;3.72;;;2.92;;
71566;SDS011;59403;47.456;19.120;2023-04-25T05:13:04;3.80;;;2.83;;
71566;SDS011;59403;47.456;19.120;2023-04-25T05:15:31;4.93;;;2.75;;
71566;SDS011;59403;47.456;19.120;2023-04-25T05:17:58;3.93;;;3.00;;
71566;SDS011;59403;47.456;19.120;2023-04-25T05:20:25;4.07;;;2.80;;
71566;SDS011;59403;47.456;19.120;2023-04-25T05:22:53;4.53;;;2.97;;
71566;SDS011;59403;47.456;19.120;2023-04-25T05:25:20;3.87;;;2.67;;
71566;SDS011;59403;47.456;19.120;2023-04-25T05:27:47;5.53;;;2.53;;
71566;SDS011;59403;47.456;19.120;2023-04-25T05:30:16;4.13;;;3.17;;
71566;SDS011;59403;47.456;19.120;2023-04-25T05:32:43;3.78;;;2.90;;
71566;SDS011;59403;47.456;19.120;2023-04-25T05:35:10;4.05;;;2.60;;
71566;SDS011;59403;47.456;19.120;2023-04-25T05:37:37;4.45;;;2.92;;
71566;SDS011;59403;47.456;19.120;2023-04-25T05:40:06;4.95;;;2.83;;
71566;SDS011;59403;47.456;19.120;2023-04-25T05:42:33;3.60;;;2.50;;
71566;SDS011;59403;47.456;19.120;2023-04-25T05:45:00;3.28;;;2.40;;
71566;SDS011;59403;47.456;19.120;2023-04-25T05:47:28;3.67;;;2.72;;
71566;SDS011;59403;47.456;19.120;2023-04-25T05:49:54;4.12;;;2.60;;
71566;SDS011;59403;47.456;19.120;2023-04-25T05:52:21;4.75;;;3.22;;
71566;SDS011;59403;47.456;19.120;2023-04-25T05:54:48;5.07;;;2.67;;
71566;SDS011;59403;47.456;19.120;2023-04-25T05:57:21;4.22;;;2.97;;
71566;SDS011;59403;47.456;19.120;2023-04-25T05:59:49;3.95;;;2.53;;
71566;SDS011;59403;47.456;19.120;2023-04-25T06:02:16;3.67;;;3.03;;
71566;SDS011;59403;47.456;19.120;2023-04-25T06:04:43;4.60;;;2.87;;
71566;SDS011;59403;47.456;19.120;2023-04-25T06:07:09;5.63;;;3.10;;
71566;SDS011;59403;47.456;19.120;2023-04-25T06:09:36;4.97;;;3.03;;
71566;SDS011;59403;47.456;19.120;2023-04-25T06:12:04;3.97;;;3.05;;
71566;SDS011;59403;47.456;19.120;2023-04-25T06:14:33;5.37;;;3.10;;
71566;SDS011;59403;47.456;19.120;2023-04-25T06:17:00;4.75;;;3.42;;
71566;SDS011;59403;47.456;19.120;2023-04-25T06:19:31;5.90;;;2.70;;
71566;SDS011;59403;47.456;19.120;2023-04-25T06:21:58;4.75;;;3.00;;
71566;SDS011;59403;47.456;19.120;2023-04-25T06:24:25;6.03;;;3.70;;
71566;SDS011;59403;47.456;19.120;2023-04-25T06:26:52;5.03;;;3.20;;
71566;SDS011;59403;47.456;19.120;2023-04-25T06:29:19;6.68;;;4.15;;
71566;SDS011;59403;47.456;19.120;2023-04-25T06:31:48;4.40;;;3.40;;
71566;SDS011;59403;47.456;19.120;2023-04-25T06:34:15;6.07;;;4.57;;
71566;SDS011;59403;47.456;19.120;2023-04-25T06:36:42;5.32;;;4.20;;
71566;SDS011;59403;47.456;19.120;2023-04-25T06:39:10;6.43;;;4.10;;
71566;SDS011;59403;47.456;19.120;2023-04-25T06:41:37;5.30;;;4.18;;
71566;SDS011;59403;47.456;19.120;2023-04-25T06:44:04;6.60;;;4.43;;
71566;SDS011;59403;47.456;19.120;2023-04-25T06:46:31;6.47;;;4.47;;
71566;SDS011;59403;47.456;19.120;2023-04-25T06:48:59;6.37;;;4.95;;
71566;SDS011;59403;47.456;19.120;2023-04-25T06:51:26;6.82;;;4.72;;
71566;SDS011;59403;47.456;19.120;2023-04-25T06:53:55;6.18;;;4.68;;
71566;SDS011;59403;47.456;19.120;2023-04-25T06:56:21;7.50;;;5.07;;
71566;SDS011;59403;47.456;19.120;2023-04-25T06:58:48;7.22;;;4.72;;
71566;SDS011;59403;47.456;19.120;2023-04-25T07:01:15;8.80;;;5.25;;
71566;SDS011;59403;47.456;19.120;2023-04-25T07:03:42;7.20;;;4.78;;
71566;SDS011;59403;47.456;19.120;2023-04-25T07:06:15;8.68;;;5.30;;
71566;SDS011;59403;47.456;19.120;2023-04-25T07:08:42;8.20;;;5.07;;
71566;SDS011;59403;47.456;19.120;2023-04-25T07:11:09;8.38;;;4.97;;
71566;SDS011;59403;47.456;19.120;2023-04-25T07:13:35;8.77;;;4.93;;
71566;SDS011;59403;47.456;19.120;2023-04-25T07:16:02;6.93;;;5.15;;
71566;SDS011;59403;47.456;19.120;2023-04-25T07:18:30;6.95;;;5.35;;
71566;SDS011;59403;47.456;19.120;2023-04-25T07:20:57;7.93;;;4.80;;
71566;SDS011;59403;47.456;19.120;2023-04-25T07:23:25;7.15;;;5.10;;
71566;SDS011;59403;47.456;19.120;2023-04-25T07:25:52;5.53;;;4.68;;
71566;SDS011;59403;47.456;19.120;2023-04-25T07:28:19;6.55;;;5.00;;
71566;SDS011;59403;47.456;19.120;2023-04-25T07:30:46;6.22;;;5.15;;
71566;SDS011;59403;47.456;19.120;2023-04-25T07:33:18;5.07;;;4.40;;
71566;SDS011;59403;47.456;19.120;2023-04-25T07:35:46;6.45;;;4.68;;
71566;SDS011;59403;47.456;19.120;2023-04-25T07:38:12;6.62;;;4.65;;
71566;SDS011;59403;47.456;19.120;2023-04-25T07:40:41;6.35;;;4.45;;
71566;SDS011;59403;47.456;19.120;2023-04-25T07:43:08;5.72;;;4.75;;
71566;SDS011;59403;47.456;19.120;2023-04-25T07:48:25;5.93;;;4.72;;
71566;SDS011;59403;47.456;19.120;2023-04-25T07:50:52;6.28;;;4.60;;
71566;SDS011;59403;47.456;19.120;2023-04-25T07:53:19;4.78;;;3.80;;
71566;SDS011;59403;47.456;19.120;2023-04-25T07:55:49;6.18;;;4.35;;
71566;SDS011;59403;47.456;19.120;2023-04-25T07:58:16;4.93;;;4.27;;
71566;SDS011;59403;47.456;19.120;2023-04-25T08:00:46;5.18;;;4.20;;
71566;SDS011;59403;47.456;19.120;2023-04-25T08:03:13;4.53;;;3.95;;
71566;SDS011;59403;47.456;19.120;2023-04-25T08:05:40;5.10;;;3.83;;
71566;SDS011;59403;47.456;19.120;2023-04-25T08:08:07;5.95;;;4.72;;
71566;SDS011;59403;47.456;19.120;2023-04-25T08:10:34;6.70;;;3.77;;
71566;SDS011;59403;47.456;19.120;2023-04-25T08:13:02;4.43;;;3.67;;
71566;SDS011;59403;47.456;19.120;2023-04-25T08:15:29;4.90;;;4.05;;
71566;SDS011;59403;47.456;19.120;2023-04-25T08:17:56;4.85;;;3.75;;
71566;SDS011;59403;47.456;19.120;2023-04-25T08:20:23;6.45;;;3.55;;
71566;SDS011;59403;47.456;19.120;2023-04-25T08:22:50;4.67;;;3.30;;
71566;SDS011;59403;47.456;19.120;2023-04-25T08:25:17;3.95;;;3.55;;
71566;SDS011;59403;47.456;19.120;2023-04-25T08:27:43;4.80;;;3.45;;
71566;SDS011;59403;47.456;19.120;2023-04-25T08:33:45;5.37;;;3.40;;
71566;SDS011;59403;47.456;19.120;2023-04-25T08:36:31;6.53;;;3.53;;
71566;SDS011;59403;47.456;19.120;2023-04-25T08:39:01;5.60;;;3.22;;
71566;SDS011;59403;47.456;19.120;2023-04-25T08:41:39;4.10;;;3.58;;
71566;SDS011;59403;47.456;19.120;2023-04-25T08:44:07;5.30;;;3.15;;
71566;SDS011;59403;47.456;19.120;2023-04-25T08:46:43;5.62;;;3.40;;
71566;SDS011;59403;47.456;19.120;2023-04-25T08:49:34;3.97;;;2.60;;
71566;SDS011;59403;47.456;19.120;2023-04-25T08:52:03;4.53;;;2.40;;
71566;SDS011;59403;47.456;19.120;2023-04-25T08:54:32;3.40;;;2.40;;
71566;SDS011;59403;47.456;19.120;2023-04-25T08:57:00;5.22;;;2.47;;
71566;SDS011;59403;47.456;19.120;2023-04-25T08:59:28;4.90;;;2.90;;
71566;SDS011;59403;47.456;19.120;2023-04-25T09:01:56;3.77;;;3.10;;
71566;SDS011;59403;47.456;19.120;2023-04-25T09:04:23;3.78;;;3.30;;
71566;SDS011;59403;47.456;19.120;2023-04-25T09:09:43;4.32;;;3.33;;
71566;SDS011;59403;47.456;19.120;2023-04-25T09:15:55;4.33;;;2.87;;
71566;SDS011;59403;47.456;19.120;2023-04-25T09:19:00;4.93;;;3.25;;
71566;SDS011;59403;47.456;19.120;2023-04-25T09:21:34;3.47;;;3.08;;
71566;SDS011;59403;47.456;19.120;2023-04-25T09:24:05;3.25;;;2.70;;
71566;SDS011;59403;47.456;19.120;2023-04-25T09:26:33;3.33;;;2.62;;
71566;SDS011;59403;47.456;19.120;2023-04-25T09:29:04;5.00;;;2.33;;
71566;SDS011;59403;47.456;19.120;2023-04-25T09:31:33;3.80;;;3.12;;
71566;SDS011;59403;47.456;19.120;2023-04-25T09:34:00;3.58;;;2.97;;
71566;SDS011;59403;47.456;19.120;2023-04-25T09:36:27;4.00;;;3.00;;
71566;SDS011;59403;47.456;19.120;2023-04-25T09:38:54;3.22;;;2.90;;
71566;SDS011;59403;47.456;19.120;2023-04-25T09:41:23;3.57;;;2.70;;
71566;SDS011;59403;47.456;19.120;2023-04-25T09:43:51;3.45;;;2.87;;
71566;SDS011;59403;47.456;19.120;2023-04-25T09:46:17;3.90;;;3.15;;
71566;SDS011;59403;47.456;19.120;2023-04-25T09:48:47;4.03;;;2.40;;
71566;SDS011;59403;47.456;19.120;2023-04-25T09:51:16;2.78;;;2.33;;
71566;SDS011;59403;47.456;19.120;2023-04-25T09:53:44;4.10;;;3.00;;
71566;SDS011;59403;47.456;19.120;2023-04-25T09:56:14;2.92;;;2.47;;
71566;SDS011;59403;47.456;19.120;2023-04-25T09:58:43;3.10;;;2.10;;
71566;SDS011;59403;47.456;19.120;2023-04-25T10:01:10;3.25;;;2.37;;
71566;SDS011;59403;47.456;19.120;2023-04-25T10:03:38;3.17;;;2.50;;
71566;SDS011;59403;47.456;19.120;2023-04-25T10:06:07;3.30;;;2.70;;
71566;SDS011;59403;47.456;19.120;2023-04-25T10:08:36;4.15;;;2.30;;
71566;SDS011;59403;47.456;19.120;2023-04-25T10:11:04;2.87;;;2.25;;
71566;SDS011;59403;47.456;19.120;2023-04-25T10:13:33;2.53;;;2.10;;
71566;SDS011;59403;47.456;19.120;2023-04-25T10:16:03;2.03;;;1.83;;
71566;SDS011;59403;47.456;19.120;2023-04-25T10:18:31;2.20;;;1.70;;
71566;SDS011;59403;47.456;19.120;2023-04-25T10:20:59;2.65;;;1.45;;
71566;SDS011;59403;47.456;19.120;2023-04-25T10:23:29;2.00;;;0.98;;
71566;SDS011;59403;47.456;19.120;2023-04-25T10:25:56;2.10;;;1.50;;
71566;SDS011;59403;47.456;19.120;2023-04-25T10:28:25;2.53;;;1.30;;
71566;SDS011;59403;47.456;19.120;2023-04-25T10:30:56;1.63;;;1.20;;
71566;SDS011;59403;47.456;19.120;2023-04-25T10:33:34;1.55;;;1.15;;
71566;SDS011;59403;47.456;19.120;2023-04-25T10:36:09;2.05;;;1.50;;
71566;SDS011;59403;47.456;19.120;2023-04-25T10:38:37;2.08;;;1.08;;
71566;SDS011;59403;47.456;19.120;2023-04-25T10:41:04;1.87;;;0.90;;
71566;SDS011;59403;47.456;19.120;2023-04-25T10:43:34;1.60;;;1.10;;
71566;SDS011;59403;47.456;19.120;2023-04-25T10:46:14;1.40;;;0.90;;
71566;SDS011;59403;47.456;19.120;2023-04-25T10:48:47;1.25;;;0.95;;
71566;SDS011;59403;47.456;19.120;2023-04-25T10:51:16;1.33;;;0.90;;
71566;SDS011;59403;47.456;19.120;2023-04-25T10:53:45;1.40;;;1.08;;
71566;SDS011;59403;47.456;19.120;2023-04-25T10:56:16;1.60;;;0.70;;
71566;SDS011;59403;47.456;19.120;2023-04-25T10:58:45;1.27;;;0.95;;
71566;SDS011;59403;47.456;19.120;2023-04-25T11:01:13;1.30;;;1.00;;
71566;SDS011;59403;47.456;19.120;2023-04-25T11:03:42;1.42;;;0.77;;
71566;SDS011;59403;47.456;19.120;2023-04-25T11:06:15;1.30;;;0.70;;
71566;SDS011;59403;47.456;19.120;2023-04-25T11:08:49;1.03;;;0.70;;
71566;SDS011;59403;47.456;19.120;2023-04-25T11:11:17;1.50;;;0.80;;
71566;SDS011;59403;47.456;19.120;2023-04-25T11:13:47;1.80;;;0.70;;
71566;SDS011;59403;47.456;19.120;2023-04-25T11:16:14;1.37;;;0.50;;
71566;SDS011;59403;47.456;19.120;2023-04-25T11:18:41;0.95;;;0.50;;
71566;SDS011;59403;47.456;19.120;2023-04-25T11:21:08;0.80;;;0.50;;
71566;SDS011;59403;47.456;19.120;2023-04-25T11:23:37;1.73;;;0.43;;
71566;SDS011;59403;47.456;19.120;2023-04-25T11:26:04;0.70;;;0.40;;
71566;SDS011;59403;47.456;19.120;2023-04-25T11:28:31;2.85;;;0.50;;
71566;SDS011;59403;47.456;19.120;2023-04-25T11:30:58;0.77;;;0.50;;
71566;SDS011;59403;47.456;19.120;2023-04-25T11:33:25;3.00;;;0.60;;
71566;SDS011;59403;47.456;19.120;2023-04-25T11:35:53;0.88;;;0.40;;
71566;SDS011;59403;47.456;19.120;2023-04-25T11:38:21;0.75;;;0.40;;
71566;SDS011;59403;47.456;19.120;2023-04-25T11:40:52;1.77;;;0.40;;
71566;SDS011;59403;47.456;19.120;2023-04-25T11:43:20;1.12;;;0.57;;
71566;SDS011;59403;47.456;19.120;2023-04-25T11:45:47;0.73;;;0.30;;
71566;SDS011;59403;47.456;19.120;2023-04-25T11:48:15;0.73;;;0.40;;
71566;SDS011;59403;47.456;19.120;2023-04-25T11:50:43;0.95;;;0.52;;
71566;SDS011;59403;47.456;19.120;2023-04-25T11:53:10;0.60;;;0.40;;
71566;SDS011;59403;47.456;19.120;2023-04-25T11:55:38;0.75;;;0.40;;
71566;SDS011;59403;47.456;19.120;2023-04-25T11:58:06;0.80;;;0.40;;
71566;SDS011;59403;47.456;19.120;2023-04-25T12:00:33;0.70;;;0.50;;
71566;SDS011;59403;47.456;19.120;2023-04-25T12:03:00;0.95;;;0.60;;
71566;SDS011;59403;47.456;19.120;2023-04-25T12:05:29;0.93;;;0.40;;
71566;SDS011;59403;47.456;19.120;2023-04-25T12:07:58;1.62;;;0.40;;
71566;SDS011;59403;47.456;19.120;2023-04-25T12:10:37;0.90;;;0.70;;
71566;SDS011;59403;47.456;19.120;2023-04-25T12:13:18;1.65;;;0.50;;
71566;SDS011;59403;47.456;19.120;2023-04-25T12:15:46;2.45;;;0.70;;
71566;SDS011;59403;47.456;19.120;2023-04-25T12:18:14;2.40;;;0.47;;
71566;SDS011;59403;47.456;19.120;2023-04-25T12:20:41;1.00;;;0.57;;
71566;SDS011;59403;47.456;19.120;2023-04-25T12:23:08;1.70;;;0.70;;
71566;SDS011;59403;47.456;19.120;2023-04-25T12:25:36;1.20;;;0.70;;
71566;SDS011;59403;47.456;19.120;2023-04-25T12:28:12;1.25;;;0.70;;
71566;SDS011;59403;47.456;19.120;2023-04-25T12:30:57;1.00;;;0.70;;
71566;SDS011;59403;47.456;19.120;2023-04-25T12:33:26;1.85;;;0.85;;
71566;SDS011;59403;47.456;19.120;2023-04-25T12:35:54;1.50;;;0.60;;
71566;SDS011;59403;47.456;19.120;2023-04-25T12:38:21;1.23;;;0.52;;
71566;SDS011;59403;47.456;19.120;2023-04-25T12:40:49;1.02;;;0.70;;
71566;SDS011;59403;47.456;19.120;2023-04-25T12:43:16;1.00;;;0.62;;
71566;SDS011;59403;47.456;19.120;2023-04-25T12:45:43;0.98;;;0.88;;
71566;SDS011;59403;47.456;19.120;2023-04-25T12:48:12;1.30;;;0.80;;
71566;SDS011;59403;47.456;19.120;2023-04-25T12:50:38;1.30;;;0.60;;
71566;SDS011;59403;47.456;19.120;2023-04-25T12:53:06;2.30;;;0.88;;
71566;SDS011;59403;47.456;19.120;2023-04-25T12:55:33;1.30;;;0.85;;
71566;SDS011;59403;47.456;19.120;2023-04-25T12:58:00;1.52;;;0.70;;
71566;SDS011;59403;47.456;19.120;2023-04-25T13:00:28;1.13;;;0.60;;
71566;SDS011;59403;47.456;19.120;2023-04-25T13:02:55;1.95;;;0.77;;
71566;SDS011;59403;47.456;19.120;2023-04-25T13:05:23;1.02;;;0.65;;
71566;SDS011;59403;47.456;19.120;2023-04-25T13:07:50;0.93;;;0.70;;
71566;SDS011;59403;47.456;19.120;2023-04-25T13:10:17;1.62;;;0.75;;
71566;SDS011;59403;47.456;19.120;2023-04-25T13:12:44;1.43;;;0.90;;
71566;SDS011;59403;47.456;19.120;2023-04-25T13:15:12;1.52;;;0.90;;
71566;SDS011;59403;47.456;19.120;2023-04-25T13:17:40;2.08;;;1.10;;
71566;SDS011;59403;47.456;19.120;2023-04-25T13:20:08;1.25;;;0.70;;
71566;SDS011;59403;47.456;19.120;2023-04-25T13:22:37;2.75;;;1.00;;
71566;SDS011;59403;47.456;19.120;2023-04-25T13:25:05;1.87;;;1.10;;
71566;SDS011;59403;47.456;19.120;2023-04-25T13:27:33;2.00;;;0.60;;
71566;SDS011;59403;47.456;19.120;2023-04-25T13:30:02;1.87;;;1.12;;
71566;SDS011;59403;47.456;19.120;2023-04-25T13:32:32;1.48;;;0.95;;
71566;SDS011;59403;47.456;19.120;2023-04-25T13:35:01;3.65;;;1.12;;
71566;SDS011;59403;47.456;19.120;2023-04-25T13:37:28;1.30;;;0.70;;
71566;SDS011;59403;47.456;19.120;2023-04-25T13:39:58;1.87;;;1.00;;
71566;SDS011;59403;47.456;19.120;2023-04-25T13:42:26;1.90;;;1.42;;
71566;SDS011;59403;47.456;19.120;2023-04-25T13:44:53;2.75;;;1.10;;
71566;SDS011;59403;47.456;19.120;2023-04-25T13:47:20;2.85;;;1.15;;
71566;SDS011;59403;47.456;19.120;2023-04-25T13:49:48;2.03;;;1.33;;
71566;SDS011;59403;47.456;19.120;2023-04-25T13:52:15;1.92;;;1.02;;
71566;SDS011;59403;47.456;19.120;2023-04-25T13:54:42;2.67;;;1.25;;
71566;SDS011;59403;47.456;19.120;2023-04-25T13:57:10;2.25;;;1.45;;
71566;SDS011;59403;47.456;19.120;2023-04-25T13:59:37;2.37;;;1.10;;
71566;SDS011;59403;47.456;19.120;2023-04-25T14:02:05;1.47;;;1.03;;
71566;SDS011;59403;47.456;19.120;2023-04-25T14:04:32;1.83;;;1.10;;
71566;SDS011;59403;47.456;19.120;2023-04-25T14:06:59;5.07;;;1.60;;
71566;SDS011;59403;47.456;19.120;2023-04-25T14:09:27;1.73;;;1.10;;
71566;SDS011;59403;47.456;19.120;2023-04-25T14:11:54;5.20;;;1.10;;
71566;SDS011;59403;47.456;19.120;2023-04-25T14:14:23;3.03;;;0.83;;
71566;SDS011;59403;47.456;19.120;2023-04-25T14:16:50;1.70;;;1.23;;
71566;SDS011;59403;47.456;19.120;2023-04-25T14:19:19;1.60;;;0.95;;
71566;SDS011;59403;47.456;19.120;2023-04-25T14:21:46;1.55;;;1.08;;
71566;SDS011;59403;47.456;19.120;2023-04-25T14:24:13;1.42;;;1.10;;
71566;SDS011;59403;47.456;19.120;2023-04-25T14:26:40;1.57;;;1.10;;
71566;SDS011;59403;47.456;19.120;2023-04-25T14:29:08;1.52;;;1.20;;
71566;SDS011;59403;47.456;19.120;2023-04-25T14:31:38;2.72;;;1.35;;
71566;SDS011;59403;47.456;19.120;2023-04-25T14:34:06;1.37;;;1.00;;
71566;SDS011;59403;47.456;19.120;2023-04-25T14:36:32;1.70;;;1.00;;
71566;SDS011;59403;47.456;19.120;2023-04-25T14:38:59;2.63;;;1.00;;
71566;SDS011;59403;47.456;19.120;2023-04-25T14:41:28;1.70;;;1.20;;
71566;SDS011;59403;47.456;19.120;2023-04-25T14:43:55;1.60;;;1.50;;
71566;SDS011;59403;47.456;19.120;2023-04-25T14:46:22;1.58;;;1.25;;
71566;SDS011;59403;47.456;19.120;2023-04-25T14:48:51;2.15;;;1.50;;
71566;SDS011;59403;47.456;19.120;2023-04-25T14:51:18;1.90;;;1.20;;
71566;SDS011;59403;47.456;19.120;2023-04-25T14:53:45;3.30;;;1.00;;
71566;SDS011;59403;47.456;19.120;2023-04-25T14:56:12;1.70;;;1.35;;